Scroll down
FLIGHT INFORMATION
Nippon Cargo Airlines

NCA0122

At Arrival Gate

CYYC
 KORD
DATE: 2020-10-23
GATE:  -
GATE DEPARTURE: 16:45
TAKEOFF: 16:52
DATE: 2020-10-23
GATE: 26
LANDING: 19:30
GATE ARRIVAL: 19:45
FLIGHT DATA
Crew: 
Speed: 
904 kph
Altitude: 
35,390 ft
Stage Length: 
2,223.8 km
Block Time: 
3 hrs
Flight Time: 
2.7 hrs
Fuel Used: 
29,396 kg
Cleared Route: CYYC NOSIV DESNU GGW KEKPE UFFDA HSTIN ZZIPR KORD
TRACK DATA
50,000 ft 1,000 kts
AIRCRAFT INFO AND CUMULATIVE STATS
Aircraft Type: 
B748F
Registration: 
SELCAL: 
MSN/LN: 
37393 / 1485
Operator: 
Total Flights: 
4
Total Block Time: 
6.9 hrs
Total Flight Time: 
5.8 hrs
Total Fuel Time: 
67,186 kg
DATALINK LOG | Newest first | Current as of: 2021-05-07 14:15:42
LABEL SEQUENCE CONTENT Dn/Up
QD431419:45 61.5▼ Dn
QC274519:30▼ Dn
UM200938CLEARED TO FL 60▲ Up
DM60928REQUEST FL 060 DUE TO A/C PERF▼ Dn
GA0937YOUR ASSIGNMENT IS STILL 26▲ Up
GR0927KORD 19:26 MAAS YP/UM WCHR/S/C HI-VAL NO DIPL/VIP NO▼ Dn
2U0957KORD 232051Z 31013KT 10SM BKN013 OVC023 07/04 A3003 RMK AO2 RAE1957 SLP170 P0001 60012 T00720044 53021▲ Up
2S0524KORD▼ Dn
GA0533CARGO STAND 26▲ Up
GR0523KORD 19:26 MAAS YP/UM WCHR/S/C HI-VAL NO DIPL/VIP NO▼ Dn
UM0 UM193460UNABLE. MAINTAIN ASSIGNED ALTITUDE▲ Up
DM63450REQUEST FL 110 DUE TO A/C PERF▼ Dn
UM95737EXPECT DESCENT IN 6 MINUTES▲ Up
DM525727WHEN CAN WE EXPECT LOWER LEVEL▼ Dn
5U4249KORD 232142Z 33015G25KT 10SM BKN020 08/06 A2994▲ Up
5S5526KORD▼ Dn
5R5425GGW 17:33z FL350 KEKPE 18:07z UFFDA M0.84 45.8 -20 298/65 RW28C 19:29z▼ Dn
UM342147CRUISE CLIMB TO 350▲ Up
UM171557AT 21 PAST THE HOUR EXPECT CRUISE CLIMB TO 350▲ Up
DM541547WHEN CAN WE EXPECT CRUISE CLIMB TO FL 350▼ Dn
UM201052CLEARED TO FL 240▲ Up
DM61042REQUEST FL 240 DUE TO A/C PERF▼ Dn
UM740749PROCEED DIRECT TO NOSIV▲ Up
DM220739REQUEST DIRECT TO NOSIV▼ Dn
QB053716:52▼ Dn
QA593116:45 126.3▼ Dn
A32352CLEARED TO KORD VIA NOSIV Q909 DESNU GGW KEKPE Q156 ZZIPR FYTTE5. SQUAWK 2452.▲ Up
Q02250[LINK ACK]▲ Up
Q02250[LINK TEST]▼ Dn


AIRCRAFT HISTORY
FLIGHT DATE FLIGHT NO. ORIGIN DESTINATION CLEARED ROUTE BLOCK TIME FLIGHT TIME FUEL USED PILOT
2020-10-23NCA0122CYYC KORD CYYC NOSIV DESNU GGW KEKPE UFFDA HSTIN ZZIPR KORD3 hrs2.7 hrs64,807 lbZsolt Szivak
2019-01-24NCA9915CYVR CYYC CYVR ADSIX CILLI MENBO NORET CYYC1.2 hrs1 hrs29,589 lbJason Brown
2019-01-21NCA9185CYYC CYVR BOTAG BOOTH VITEV STAVE LANNE MILLS BASRA SEBOG APLEX VINLO1.5 hrs1.1 hrs28,563 lbJason Brown
2019-01-21NCA9185KPAE CYYC ALPSE YDC MENBO NORET PIBSO AMITO SEDEL IGVEP XUGAV URVUG VESGA MESKA DEPTU1.2 hrs1 hrs25,161 lbJason Brown